Time;durP1;ratioP1;P1;durP2;ratioP2;P2;SDS_P1;SDS_P2;PMS_P1;PMS_P2;Temp;Humidity;BMP_temperature;BMP_pressure;BME280_temperature;BME280_humidity;BME280_pressure;Samples;Min_cycle;Max_cycle;Signal;HPM_P1;HPM_P2
2022/07/24 00:00:31;;;;;;;9.18;5.43;;;17.50;99.90;;;;;;5017318;28;20037;-77
2022/07/24 00:02:56;;;;;;;7.10;5.32;;;17.50;99.90;;;;;;5032119;28;20128;-78
2022/07/24 00:05:22;;;;;;;6.50;5.25;;;17.50;99.90;;;;;;5020192;28;20034;-77
2022/07/24 00:07:48;;;;;;;7.13;5.18;;;17.50;99.90;;;;;;5012228;28;20504;-77
2022/07/24 00:10:14;;;;;;;8.18;5.95;;;17.50;99.90;;;;;;5011833;28;20044;-77
2022/07/24 00:12:40;;;;;;;8.95;5.80;;;17.50;99.90;;;;;;5017231;28;20496;-76
2022/07/24 00:15:06;;;;;;;6.70;5.40;;;17.40;99.90;;;;;;5015712;28;20044;-77
2022/07/24 00:17:32;;;;;;;9.07;5.03;;;17.40;99.90;;;;;;5016819;28;20094;-77
2022/07/24 00:19:58;;;;;;;7.57;5.50;;;17.40;99.90;;;;;;5036548;28;20073;-77
2022/07/24 00:22:24;;;;;;;8.25;5.28;;;17.50;99.90;;;;;;5026774;28;20608;-77
2022/07/24 00:24:53;;;;;;;7.10;5.07;;;17.50;99.90;;;;;;5027117;28;20124;-76
2022/07/24 00:27:23;;;;;;;8.70;5.50;;;17.40;99.90;;;;;;5030496;28;20046;-77
2022/07/24 00:29:53;;;;;;;9.48;5.20;;;17.40;99.90;;;;;;5028501;28;20064;-77
2022/07/24 00:32:19;;;;;;;6.90;4.97;;;17.40;99.90;;;;;;5028342;28;20128;-77
2022/07/24 00:34:45;;;;;;;7.65;5.35;;;17.40;99.90;;;;;;5033025;28;20149;-77
2022/07/24 00:37:10;;;;;;;8.68;4.93;;;17.40;99.90;;;;;;5024530;28;20054;-77
2022/07/24 00:39:36;;;;;;;7.30;5.03;;;17.40;99.90;;;;;;5027842;28;20116;-77
2022/07/24 00:42:02;;;;;;;6.75;4.90;;;17.40;99.90;;;;;;5043102;28;20521;-76
2022/07/24 00:44:27;;;;;;;7.57;5.20;;;17.40;99.90;;;;;;5017441;28;20062;-76
2022/07/24 00:46:53;;;;;;;7.43;4.95;;;17.40;99.90;;;;;;5032446;28;20045;-76
2022/07/24 00:49:20;;;;;;;8.05;5.05;;;17.40;99.90;;;;;;5033155;28;20401;-77
2022/07/24 00:51:49;;;;;;;7.22;5.15;;;17.40;99.90;;;;;;5035289;28;20048;-77
2022/07/24 00:54:16;;;;;;;7.05;4.95;;;17.40;99.90;;;;;;5031308;28;20037;-77
2022/07/24 00:56:44;;;;;;;8.70;5.50;;;17.40;99.90;;;;;;5021610;28;20041;-76
2022/07/24 00:59:10;;;;;;;8.02;5.45;;;17.40;99.90;;;;;;5030201;28;20053;-79
2022/07/24 01:01:36;;;;;;;6.90;5.40;;;17.40;99.90;;;;;;5034081;28;20082;-76
2022/07/24 01:04:02;;;;;;;7.78;5.18;;;17.40;99.90;;;;;;5030746;28;20037;-77
2022/07/24 01:06:27;;;;;;;7.97;5.40;;;17.40;99.90;;;;;;5025767;28;20076;-77
2022/07/24 01:08:57;;;;;;;7.13;5.40;;;17.30;99.90;;;;;;5025467;28;20046;-77
2022/07/24 01:11:25;;;;;;;8.70;5.28;;;17.20;99.90;;;;;;5013199;28;20035;-77
2022/07/24 01:13:51;;;;;;;6.82;5.30;;;17.30;99.90;;;;;;5027691;28;20052;-77
2022/07/24 01:16:21;;;;;;;6.05;4.85;;;17.20;99.90;;;;;;5022047;28;20041;-77
2022/07/24 01:18:46;;;;;;;7.18;5.00;;;17.30;99.90;;;;;;5013212;28;20052;-77
2022/07/24 01:21:12;;;;;;;7.50;5.07;;;17.20;99.90;;;;;;5029141;28;20397;-77
2022/07/24 01:23:41;;;;;;;7.05;4.97;;;17.20;99.90;;;;;;5024759;28;20098;-77
2022/07/24 01:26:08;;;;;;;6.78;5.05;;;17.20;99.90;;;;;;5014285;28;20084;-77
2022/07/24 01:28:37;;;;;;;6.18;4.85;;;17.20;99.90;;;;;;5011794;28;20091;-77
2022/07/24 01:31:03;;;;;;;6.78;4.97;;;17.10;99.90;;;;;;5020156;28;20140;-77
2022/07/24 01:33:29;;;;;;;7.07;5.10;;;17.10;99.90;;;;;;5031352;28;20120;-77
2022/07/24 01:35:59;;;;;;;6.95;5.60;;;17.10;99.90;;;;;;5031748;28;20087;-77
2022/07/24 01:38:25;;;;;;;7.32;5.45;;;17.10;99.90;;;;;;5007042;28;20041;-77
2022/07/24 01:40:51;;;;;;;6.55;5.45;;;17.10;99.90;;;;;;5019110;28;20048;-77
2022/07/24 01:43:16;;;;;;;7.95;5.82;;;17.00;99.90;;;;;;5002635;28;20552;-77
2022/07/24 01:45:42;;;;;;;7.78;5.63;;;17.00;99.90;;;;;;5031347;28;20034;-77
2022/07/24 01:48:08;;;;;;;7.28;5.43;;;17.00;99.90;;;;;;5040525;28;20045;-76
2022/07/24 01:50:33;;;;;;;6.90;5.68;;;17.00;99.90;;;;;;5031589;28;20045;-76
2022/07/24 01:53:01;;;;;;;8.13;5.90;;;17.00;99.90;;;;;;5031069;28;20045;-76
2022/07/24 01:55:29;;;;;;;7.10;5.95;;;17.00;99.90;;;;;;5037306;28;20041;-78
2022/07/24 01:57:55;;;;;;;8.43;5.70;;;16.90;99.90;;;;;;5027274;28;20049;-77
2022/07/24 02:00:20;;;;;;;12.35;6.15;;;16.90;99.90;;;;;;5031290;28;20506;-77
2022/07/24 02:02:50;;;;;;;8.82;6.25;;;16.90;99.90;;;;;;5029158;28;20075;-77
2022/07/24 02:05:16;;;;;;;8.40;5.53;;;16.90;99.90;;;;;;5027699;28;20052;-77
2022/07/24 02:07:42;;;;;;;10.30;6.28;;;16.90;99.90;;;;;;5023777;28;20041;-77
2022/07/24 02:10:10;;;;;;;7.63;6.40;;;16.90;99.90;;;;;;5017957;28;20129;-77
2022/07/24 02:12:35;;;;;;;8.38;6.45;;;16.90;99.90;;;;;;5023987;28;20033;-76
2022/07/24 02:15:02;;;;;;;8.50;6.28;;;16.80;99.90;;;;;;5032414;28;20037;-77
2022/07/24 02:17:27;;;;;;;7.78;6.28;;;16.90;99.90;;;;;;5030823;28;20037;-77
2022/07/24 02:19:53;;;;;;;9.32;6.22;;;16.80;99.90;;;;;;5021464;28;20092;-77
2022/07/24 02:22:18;;;;;;;9.25;6.32;;;16.80;99.90;;;;;;5021106;28;20045;-77
2022/07/24 02:24:44;;;;;;;11.07;6.03;;;16.80;99.90;;;;;;5022231;28;20033;-77
2022/07/24 02:27:13;;;;;;;6.90;5.80;;;16.80;99.90;;;;;;5017911;28;20037;-77
2022/07/24 02:29:39;;;;;;;11.73;6.10;;;16.90;99.90;;;;;;5029244;28;20060;-77
2022/07/24 02:32:07;;;;;;;7.55;6.50;;;16.90;99.90;;;;;;5063017;28;20041;-77
2022/07/24 02:34:34;;;;;;;7.72;6.15;;;16.80;99.90;;;;;;5044206;28;20525;-77
2022/07/24 02:37:04;;;;;;;8.48;6.13;;;16.90;99.90;;;;;;5017042;28;20479;-77
2022/07/24 02:39:29;;;;;;;8.95;5.85;;;16.80;99.90;;;;;;5011586;28;20044;-77
2022/07/24 02:41:55;;;;;;;9.45;6.03;;;16.80;99.90;;;;;;5038641;28;20117;-77
2022/07/24 02:44:23;;;;;;;8.35;5.90;;;16.90;99.90;;;;;;5025167;28;20036;-77
2022/07/24 02:46:48;;;;;;;9.10;5.90;;;16.80;99.90;;;;;;5024511;28;20037;-77
2022/07/24 02:49:14;;;;;;;16.77;6.35;;;16.90;99.90;;;;;;5027429;28;20095;-77
2022/07/24 02:51:40;;;;;;;8.43;6.35;;;16.90;99.90;;;;;;5027553;28;20517;-77
2022/07/24 02:54:05;;;;;;;6.68;5.63;;;16.80;99.90;;;;;;5027847;28;20113;-77
2022/07/24 02:56:31;;;;;;;8.13;5.93;;;16.90;99.90;;;;;;5026065;28;20041;-77
2022/07/24 02:58:56;;;;;;;8.73;6.10;;;16.90;99.90;;;;;;5035180;28;20041;-77
2022/07/24 03:01:22;;;;;;;7.90;6.03;;;16.90;99.90;;;;;;5031218;28;20493;-78
2022/07/24 03:03:47;;;;;;;7.18;5.75;;;16.80;99.90;;;;;;5017221;28;20124;-78
2022/07/24 03:06:18;;;;;;;8.48;6.10;;;16.80;99.90;;;;;;5037707;28;20048;-77
2022/07/24 03:08:43;;;;;;;7.25;5.75;;;16.80;99.90;;;;;;5027129;28;20041;-76
2022/07/24 03:11:09;;;;;;;11.13;5.95;;;16.80;99.90;;;;;;5009025;28;20037;-76
2022/07/24 03:13:35;;;;;;;9.02;5.93;;;16.80;99.90;;;;;;5025354;28;20065;-76
2022/07/24 03:16:00;;;;;;;8.63;5.85;;;16.80;99.90;;;;;;5000684;28;20048;-76
2022/07/24 03:18:26;;;;;;;7.28;5.63;;;16.80;99.90;;;;;;5022292;28;20041;-76
2022/07/24 03:20:52;;;;;;;8.20;6.18;;;16.80;99.90;;;;;;5026351;28;20041;-77
2022/07/24 03:23:17;;;;;;;9.57;6.05;;;16.80;99.90;;;;;;5021445;28;20501;-77
2022/07/24 03:25:43;;;;;;;9.77;5.95;;;16.80;99.90;;;;;;5018399;28;20053;-77
2022/07/24 03:28:09;;;;;;;10.57;6.38;;;16.70;99.90;;;;;;5034149;28;20039;-77
2022/07/24 03:30:34;;;;;;;8.43;6.00;;;16.80;99.90;;;;;;5039588;28;20048;-77
2022/07/24 03:33:03;;;;;;;8.85;6.35;;;16.70;99.90;;;;;;5029436;28;20075;-76
2022/07/24 03:35:29;;;;;;;7.68;6.30;;;16.80;99.90;;;;;;5028101;28;20381;-77
2022/07/24 03:37:57;;;;;;;9.80;6.22;;;16.80;99.90;;;;;;5034185;28;20041;-77
2022/07/24 03:40:25;;;;;;;7.97;5.72;;;16.70;99.90;;;;;;5025498;28;20137;-76
2022/07/24 03:42:51;;;;;;;7.63;6.07;;;16.80;99.90;;;;;;5029189;28;20046;-77
2022/07/24 03:45:16;;;;;;;8.10;6.43;;;16.70;99.90;;;;;;5027599;28;20119;-77
2022/07/24 03:47:42;;;;;;;8.43;6.20;;;16.70;99.90;;;;;;5054628;28;20045;-77
2022/07/24 03:50:08;;;;;;;21.52;6.85;;;16.70;99.90;;;;;;5006164;28;20038;-77
2022/07/24 03:52:33;;;;;;;11.27;6.00;;;16.80;99.90;;;;;;5017467;28;20042;-77
2022/07/24 03:54:59;;;;;;;13.27;6.78;;;16.80;99.90;;;;;;5027334;28;20040;-77
2022/07/24 03:57:25;;;;;;;8.45;6.38;;;16.80;99.90;;;;;;5036585;28;20033;-77
2022/07/24 03:59:52;;;;;;;7.90;6.35;;;16.80;99.90;;;;;;5031869;28;20512;-78
2022/07/24 04:02:17;;;;;;;8.15;6.25;;;16.80;99.90;;;;;;5033448;28;20408;-78
2022/07/24 04:04:43;;;;;;;9.63;6.10;;;16.80;99.90;;;;;;5056292;28;20205;-77
2022/07/24 04:07:09;;;;;;;9.73;6.55;;;16.80;99.90;;;;;;5023274;28;20034;-77
2022/07/24 04:09:35;;;;;;;10.18;6.88;;;16.80;99.90;;;;;;5023369;28;20045;-77
2022/07/24 04:12:00;;;;;;;11.25;5.95;;;16.80;99.90;;;;;;5025273;28;20038;-77
2022/07/24 04:14:26;;;;;;;8.25;6.10;;;16.80;99.90;;;;;;5021546;28;20125;-77
2022/07/24 04:16:52;;;;;;;8.10;6.07;;;16.80;99.90;;;;;;5014535;28;20541;-76
2022/07/24 04:19:20;;;;;;;8.60;6.28;;;16.80;99.90;;;;;;5020646;28;20041;-76
2022/07/24 04:21:45;;;;;;;9.05;6.47;;;16.90;99.90;;;;;;5045149;28;20044;-77
2022/07/24 04:24:11;;;;;;;9.25;6.95;;;16.80;99.90;;;;;;5028210;28;20053;-77
2022/07/24 04:26:37;;;;;;;7.97;6.72;;;16.80;99.90;;;;;;5028186;28;20052;-77
2022/07/24 04:29:03;;;;;;;9.15;6.65;;;16.80;99.90;;;;;;5033483;28;20037;-77
2022/07/24 04:31:28;;;;;;;8.73;6.10;;;16.80;99.90;;;;;;5029895;28;20037;-78
2022/07/24 04:33:54;;;;;;;10.23;6.60;;;16.80;99.90;;;;;;5026925;28;20052;-77
2022/07/24 04:36:19;;;;;;;10.52;6.32;;;16.80;99.90;;;;;;5032541;28;20507;-76
2022/07/24 04:38:45;;;;;;;10.45;7.05;;;16.80;99.90;;;;;;5026679;28;20042;-76
2022/07/24 04:41:11;;;;;;;11.05;6.88;;;16.80;99.90;;;;;;5029630;28;20140;-77
2022/07/24 04:43:37;;;;;;;10.18;6.88;;;16.80;99.90;;;;;;5019579;28;20042;-76
2022/07/24 04:46:03;;;;;;;9.07;6.50;;;16.80;99.90;;;;;;5019448;28;20048;-76
2022/07/24 04:48:28;;;;;;;7.95;6.53;;;16.80;99.90;;;;;;5022810;28;20553;-76
2022/07/24 04:50:54;;;;;;;9.73;7.43;;;16.80;99.90;;;;;;5028096;28;20049;-76
2022/07/24 04:53:20;;;;;;;8.65;6.82;;;16.80;99.90;;;;;;5024127;28;20120;-77
2022/07/24 04:55:45;;;;;;;11.60;6.82;;;16.80;99.90;;;;;;5019983;28;20041;-77
2022/07/24 04:58:11;;;;;;;9.00;7.22;;;16.80;99.90;;;;;;5030719;28;20037;-76
2022/07/24 05:00:37;;;;;;;9.93;7.50;;;16.70;99.90;;;;;;5006973;28;20045;-77
2022/07/24 05:03:02;;;;;;;9.82;7.53;;;16.70;99.90;;;;;;5018669;28;20540;-77
2022/07/24 05:05:28;;;;;;;9.45;7.47;;;16.70;99.90;;;;;;5036906;28;20033;-77
2022/07/24 05:07:54;;;;;;;9.45;7.75;;;16.70;99.90;;;;;;5020800;28;20037;-76
2022/07/24 05:10:19;;;;;;;10.13;8.15;;;16.70;99.90;;;;;;5024227;28;20092;-76
2022/07/24 05:12:45;;;;;;;10.55;7.95;;;16.70;99.90;;;;;;5033384;28;20121;-76
2022/07/24 05:15:10;;;;;;;11.43;7.95;;;16.70;99.90;;;;;;5021118;28;20124;-76
2022/07/24 05:17:36;;;;;;;11.20;7.97;;;16.70;99.90;;;;;;5029409;28;20040;-76
2022/07/24 05:20:06;;;;;;;12.23;8.48;;;16.80;99.90;;;;;;5023195;28;20088;-76
2022/07/24 05:22:32;;;;;;;14.07;8.35;;;16.70;99.90;;;;;;5022938;28;20048;-76
2022/07/24 05:24:58;;;;;;;12.32;9.10;;;16.80;99.90;;;;;;5023358;28;20053;-77
2022/07/24 05:27:23;;;;;;;11.82;8.60;;;16.80;99.90;;;;;;5023593;28;20039;-76
2022/07/24 05:29:49;;;;;;;9.63;8.27;;;16.80;99.90;;;;;;5030978;28;20073;-76
2022/07/24 05:32:15;;;;;;;12.00;8.65;;;16.80;99.90;;;;;;5024361;28;20057;-76
2022/07/24 05:34:40;;;;;;;11.90;9.20;;;16.90;99.90;;;;;;5027188;28;20040;-76
2022/07/24 05:37:08;;;;;;;11.02;8.35;;;16.90;99.90;;;;;;5029322;28;20524;-77
2022/07/24 05:39:34;;;;;;;13.75;8.68;;;16.90;99.90;;;;;;5021154;28;20503;-77
2022/07/24 05:41:59;;;;;;;12.20;9.32;;;16.90;99.90;;;;;;5030285;28;20125;-76
2022/07/24 05:44:25;;;;;;;13.57;9.23;;;16.90;99.90;;;;;;4998349;28;20083;-77
2022/07/24 05:46:51;;;;;;;11.30;9.45;;;16.90;99.90;;;;;;5030520;28;20181;-77
2022/07/24 05:49:16;;;;;;;12.25;9.35;;;17.00;99.90;;;;;;5021129;28;20041;-77
2022/07/24 05:51:44;;;;;;;14.80;9.55;;;17.00;99.90;;;;;;5025083;28;20035;-77
2022/07/24 05:54:10;;;;;;;12.52;9.77;;;17.00;99.90;;;;;;5044646;28;20112;-76
2022/07/24 05:56:35;;;;;;;12.95;10.00;;;17.10;99.90;;;;;;5029018;28;20101;-76
2022/07/24 05:59:01;;;;;;;11.52;9.48;;;17.10;99.90;;;;;;5032469;28;20056;-77
2022/07/24 06:01:27;;;;;;;14.50;10.02;;;17.10;99.90;;;;;;5026470;28;20044;-76
2022/07/24 06:03:52;;;;;;;13.02;10.57;;;17.20;99.90;;;;;;5025670;28;20108;-76
2022/07/24 06:06:18;;;;;;;14.02;10.80;;;17.20;99.90;;;;;;5037001;28;20137;-76
2022/07/24 06:08:45;;;;;;;12.68;9.68;;;17.30;99.90;;;;;;5019344;28;20471;-76
2022/07/24 06:11:10;;;;;;;13.98;10.60;;;17.30;99.90;;;;;;5025551;28;20041;-76
2022/07/24 06:13:36;;;;;;;14.55;11.23;;;17.30;99.90;;;;;;5030062;28;20033;-77
2022/07/24 06:16:02;;;;;;;14.82;10.75;;;17.40;99.90;;;;;;5025149;28;20029;-76
2022/07/24 06:18:27;;;;;;;15.77;12.25;;;17.50;99.90;;;;;;5025700;28;20149;-78
2022/07/24 06:20:53;;;;;;;15.13;11.70;;;17.40;99.90;;;;;;5025789;28;20041;-77
2022/07/24 06:23:18;;;;;;;14.60;11.93;;;17.50;99.90;;;;;;5021005;28;20045;-77
2022/07/24 06:25:44;;;;;;;16.58;12.30;;;17.60;99.90;;;;;;5031138;28;20045;-75
2022/07/24 06:28:10;;;;;;;18.25;13.07;;;17.70;99.90;;;;;;5021446;28;20037;-77
2022/07/24 06:30:35;;;;;;;16.65;12.55;;;17.70;99.90;;;;;;5029573;28;20046;-78
2022/07/24 06:33:01;;;;;;;17.52;13.60;;;17.80;99.90;;;;;;5028214;28;20095;-78
2022/07/24 06:35:27;;;;;;;18.25;13.68;;;17.80;99.90;;;;;;5013099;28;20152;-78
2022/07/24 06:37:55;;;;;;;19.02;13.93;;;17.90;99.90;;;;;;5027542;28;20042;-77
2022/07/24 06:40:21;;;;;;;22.15;13.75;;;18.00;99.90;;;;;;5008454;28;20038;-78
2022/07/24 06:42:47;;;;;;;19.90;14.43;;;18.00;99.90;;;;;;5023947;28;20043;-78
2022/07/24 06:45:14;;;;;;;18.98;14.00;;;18.00;99.90;;;;;;5026505;28;20037;-77
2022/07/24 06:47:40;;;;;;;20.98;14.23;;;18.10;99.90;;;;;;5013407;28;20079;-77
2022/07/24 06:50:07;;;;;;;20.35;14.70;;;18.20;99.90;;;;;;5023463;28;20325;-78
2022/07/24 06:52:33;;;;;;;18.45;14.05;;;18.20;99.90;;;;;;5027563;28;20414;-78
2022/07/24 06:54:58;;;;;;;19.33;14.63;;;18.30;99.90;;;;;;5000716;28;20036;-79
2022/07/24 06:57:25;;;;;;;22.42;15.25;;;18.30;99.90;;;;;;5010538;28;20463;-77
2022/07/24 06:59:52;;;;;;;18.00;14.73;;;18.40;99.90;;;;;;5013171;28;20049;-78
2022/07/24 07:02:18;;;;;;;19.30;14.00;;;18.50;99.90;;;;;;5023536;28;20049;-77
2022/07/24 07:04:44;;;;;;;24.10;14.23;;;18.50;99.90;;;;;;5028973;28;20116;-78
2022/07/24 07:07:10;;;;;;;17.30;13.05;;;18.70;99.90;;;;;;5013010;28;20117;-77
2022/07/24 07:09:36;;;;;;;19.25;14.45;;;18.70;99.90;;;;;;5028985;28;20516;-77
2022/07/24 07:12:03;;;;;;;17.30;13.50;;;18.80;99.90;;;;;;5030086;28;20040;-78
2022/07/24 07:14:29;;;;;;;17.85;13.43;;;18.90;99.90;;;;;;5010970;28;20065;-77
2022/07/24 07:16:54;;;;;;;19.88;13.60;;;19.00;99.90;;;;;;5014588;28;20046;-78
2022/07/24 07:19:20;;;;;;;19.10;13.32;;;19.00;99.90;;;;;;5009353;28;20037;-78
2022/07/24 07:21:46;;;;;;;17.08;12.57;;;19.10;99.90;;;;;;5040670;28;20080;-78
2022/07/24 07:24:11;;;;;;;14.13;11.93;;;19.10;99.90;;;;;;5015628;28;20050;-79
2022/07/24 07:26:37;;;;;;;14.75;10.90;;;19.20;99.90;;;;;;5014967;28;20045;-78
2022/07/24 07:29:02;;;;;;;16.33;11.57;;;19.20;99.90;;;;;;5010157;28;20076;-78
2022/07/24 07:31:28;;;;;;;15.40;10.88;;;19.30;99.90;;;;;;5027712;28;20068;-77
2022/07/24 07:33:54;;;;;;;15.52;9.70;;;19.30;99.90;;;;;;5031742;28;20103;-77
2022/07/24 07:36:19;;;;;;;13.15;8.80;;;19.40;99.90;;;;;;5027006;28;20393;-77
2022/07/24 07:38:45;;;;;;;11.25;8.75;;;19.50;99.90;;;;;;5023925;28;20111;-78
2022/07/24 07:41:12;;;;;;;11.77;8.20;;;19.60;99.90;;;;;;5022414;28;20048;-78
2022/07/24 07:43:38;;;;;;;11.88;7.43;;;19.60;99.90;;;;;;5021822;28;20049;-75
2022/07/24 07:46:04;;;;;;;10.68;7.53;;;19.70;99.90;;;;;;5023052;28;20092;-78
2022/07/24 07:48:30;;;;;;;9.75;7.57;;;19.80;99.90;;;;;;5027139;28;20045;-76
2022/07/24 07:50:56;;;;;;;11.07;7.00;;;19.90;99.90;;;;;;5032158;28;20038;-77
2022/07/24 07:53:22;;;;;;;10.75;7.22;;;19.90;99.90;;;;;;5031854;28;20092;-78
2022/07/24 07:55:51;;;;;;;8.35;6.45;;;20.00;99.90;;;;;;5009851;28;20045;-78
2022/07/24 07:58:17;;;;;;;9.48;6.72;;;20.00;99.90;;;;;;5013597;28;20077;-78
2022/07/24 08:00:43;;;;;;;8.52;6.80;;;20.10;99.90;;;;;;5017029;28;20079;-78
2022/07/24 08:03:09;;;;;;;10.90;7.18;;;20.20;99.90;;;;;;5027893;28;20064;-76
2022/07/24 08:05:35;;;;;;;8.15;6.82;;;20.30;99.90;;;;;;5036779;28;20038;-78
2022/07/24 08:08:01;;;;;;;8.25;6.25;;;20.40;99.90;;;;;;5035100;28;20034;-76
2022/07/24 08:10:26;;;;;;;9.57;6.35;;;20.40;99.90;;;;;;5027477;28;20030;-77
2022/07/24 08:12:52;;;;;;;9.65;6.28;;;20.50;99.90;;;;;;5017341;28;20098;-77
2022/07/24 08:15:19;;;;;;;7.05;5.65;;;20.60;99.90;;;;;;5036794;28;20057;-77
2022/07/24 08:17:44;;;;;;;7.88;5.03;;;20.70;99.90;;;;;;5022152;28;20094;-77
2022/07/24 08:20:11;;;;;;;8.52;4.75;;;20.80;99.90;;;;;;5026275;28;20140;-76
2022/07/24 08:22:36;;;;;;;5.00;4.45;;;20.90;99.90;;;;;;5028957;28;20515;-77
2022/07/24 08:25:03;;;;;;;6.22;3.67;;;21.10;99.90;;;;;;5015782;28;20133;-78
2022/07/24 08:27:29;;;;;;;5.38;3.60;;;21.30;99.90;;;;;;5019800;28;20038;-77
2022/07/24 08:29:56;;;;;;;6.20;3.38;;;21.50;99.90;;;;;;5021850;28;20045;-77
2022/07/24 08:32:22;;;;;;;6.47;3.83;;;21.60;99.90;;;;;;5024923;28;20064;-77
2022/07/24 08:34:47;;;;;;;6.25;3.45;;;21.80;99.90;;;;;;5020460;28;20049;-77
2022/07/24 08:37:13;;;;;;;5.28;3.58;;;22.00;99.90;;;;;;5016988;28;20046;-78
2022/07/24 08:39:38;;;;;;;4.13;3.17;;;22.20;99.90;;;;;;5023535;28;20129;-77
2022/07/24 08:42:07;;;;;;;4.93;3.35;;;22.40;99.90;;;;;;5028442;28;20049;-77
2022/07/24 08:44:33;;;;;;;4.80;3.10;;;22.50;99.90;;;;;;5033260;28;20504;-78
2022/07/24 08:46:59;;;;;;;3.90;3.03;;;22.60;99.90;;;;;;5040630;28;20049;-78
2022/07/24 08:49:34;;;;;;;3.20;2.78;;;22.80;99.90;;;;;;5024911;28;20084;-77
2022/07/24 08:52:02;;;;;;;5.05;3.20;;;23.00;99.90;;;;;;5011490;28;20034;-77
2022/07/24 08:54:27;;;;;;;4.35;2.90;;;23.10;99.90;;;;;;5030677;28;20084;-77
2022/07/24 08:56:53;;;;;;;4.20;2.80;;;23.10;99.90;;;;;;5021077;28;20042;-78
2022/07/24 08:59:21;;;;;;;4.30;3.00;;;23.20;99.90;;;;;;5023822;28;20096;-78
2022/07/24 09:01:50;;;;;;;5.00;2.70;;;23.30;99.90;;;;;;5011991;28;20041;-77
2022/07/24 09:04:45;;;;;;;3.08;2.35;;;23.40;99.90;;;;;;5024563;28;20150;-77
2022/07/24 09:07:14;;;;;;;3.35;2.40;;;23.70;98.20;;;;;;5030931;28;20084;-77
2022/07/24 09:09:42;;;;;;;4.88;2.35;;;23.70;98.90;;;;;;5021965;28;20633;-77
2022/07/24 09:12:21;;;;;;;3.35;2.47;;;23.70;99.10;;;;;;5030305;28;20045;-77
2022/07/24 09:14:48;;;;;;;4.80;2.65;;;23.80;99.10;;;;;;5027140;28;20044;-77
2022/07/24 09:17:19;;;;;;;3.35;2.67;;;23.90;98.70;;;;;;5020898;28;20056;-77
2022/07/24 09:19:54;;;;;;;3.08;2.65;;;24.10;98.60;;;;;;5013592;28;20053;-77
2022/07/24 09:22:41;;;;;;;3.47;2.80;;;24.20;97.20;;;;;;5019301;28;20041;-78
2022/07/24 09:25:16;;;;;;;5.40;2.60;;;24.40;96.80;;;;;;5046151;28;20052;-78
2022/07/24 09:27:50;;;;;;;5.22;2.45;;;24.50;97.20;;;;;;5021104;28;20037;-78
2022/07/24 09:30:24;;;;;;;4.07;2.50;;;24.60;97.10;;;;;;5030498;28;20379;-77
2022/07/24 09:33:01;;;;;;;2.92;2.35;;;24.70;96.50;;;;;;5030840;28;20097;-77
2022/07/24 09:35:32;;;;;;;3.28;2.20;;;24.90;96.10;;;;;;5008481;28;20489;-77
2022/07/24 09:38:03;;;;;;;2.72;2.20;;;25.00;94.40;;;;;;5032174;28;20163;-78
2022/07/24 09:40:34;;;;;;;;;;;25.10;94.90;;;;;;5026751;28;20084;-78
2022/07/24 09:43:21;;;;;;;4.28;2.40;;;25.30;93.40;;;;;;5029136;28;19940;-78
2022/07/24 09:45:53;;;;;;;3.10;2.25;;;25.50;92.70;;;;;;5013930;28;20041;-78
2022/07/24 09:48:22;;;;;;;3.58;2.55;;;25.40;93.10;;;;;;5038982;28;20045;-78
2022/07/24 09:50:56;;;;;;;3.08;2.10;;;25.50;93.20;;;;;;5027617;28;20087;-78
2022/07/24 09:53:28;;;;;;;4.82;3.00;;;25.40;92.60;;;;;;5027814;28;20038;-78
2022/07/24 09:56:07;;;;;;;5.93;2.33;;;25.50;92.00;;;;;;5023151;28;20046;-78
2022/07/24 09:58:38;;;;;;;3.03;2.40;;;25.50;91.10;;;;;;5019906;28;20048;-78
2022/07/24 10:01:08;;;;;;;6.75;2.72;;;25.50;91.80;;;;;;5012590;28;20060;-79
2022/07/24 10:03:40;;;;;;;2.50;2.30;;;25.60;92.20;;;;;;5024791;28;20490;-78
2022/07/24 10:06:09;;;;;;;5.53;3.10;;;25.90;91.90;;;;;;5017735;28;20049;-78
2022/07/24 10:08:37;;;;;;;4.93;2.80;;;26.00;92.00;;;;;;5026477;28;20084;-78
2022/07/24 10:11:03;;;;;;;3.88;2.80;;;26.20;91.20;;;;;;5009831;28;20033;-78
2022/07/24 10:13:30;;;;;;;4.70;2.80;;;26.30;90.20;;;;;;5028480;28;20061;-79
2022/07/24 10:16:14;;;;;;;3.63;2.72;;;26.40;90.00;;;;;;5031543;28;20041;-78
2022/07/24 10:18:47;;;;;;;6.97;2.80;;;26.40;89.00;;;;;;5028033;28;20401;-79
2022/07/24 10:21:20;;;;;;;3.10;2.60;;;26.60;89.20;;;;;;5019146;28;20172;-78
2022/07/24 10:24:07;;;;;;;4.40;3.20;;;26.70;88.90;;;;;;5040865;28;20048;-77
2022/07/24 10:26:43;;;;;;;2.95;2.60;;;26.70;87.70;;;;;;5034062;28;20034;-77
2022/07/24 10:29:19;;;;;;;3.67;2.67;;;26.80;86.40;;;;;;5029368;28;20099;-77
2022/07/24 10:31:47;;;;;;;3.00;2.50;;;26.90;84.80;;;;;;5023939;28;20049;-78
2022/07/24 10:34:39;;;;;;;4.68;3.20;;;26.80;85.30;;;;;;5029836;28;20064;-76
2022/07/24 10:37:14;;;;;;;4.43;2.80;;;26.90;83.20;;;;;;5020157;28;20045;-78
2022/07/24 10:39:42;;;;;;;3.10;2.63;;;27.00;84.50;;;;;;5020962;28;20069;-78
2022/07/24 10:42:08;;;;;;;3.95;2.95;;;27.00;84.40;;;;;;5026900;28;20132;-78
2022/07/24 10:44:34;;;;;;;3.60;2.60;;;26.90;83.60;;;;;;5013418;28;20124;-73
2022/07/24 10:47:06;;;;;;;3.88;2.85;;;26.80;83.30;;;;;;5021512;28;20049;-77
2022/07/24 10:49:48;;;;;;;3.13;2.80;;;26.80;83.50;;;;;;5022650;28;20397;-79
2022/07/24 10:52:30;;;;;;;3.85;2.70;;;26.90;84.50;;;;;;5027223;28;20402;-78
2022/07/24 10:55:33;;;;;;;3.25;2.80;;;26.90;82.60;;;;;;5027876;28;20052;-78
2022/07/24 10:58:08;;;;;;;4.63;2.60;;;26.90;82.60;;;;;;5024733;28;20081;-79
2022/07/24 11:00:40;;;;;;;4.63;3.25;;;27.10;83.80;;;;;;5026430;28;20478;-78
2022/07/24 11:03:29;;;;;;;5.78;3.03;;;27.20;83.40;;;;;;5030089;28;20041;-78
2022/07/24 11:06:38;;;;;;;4.55;2.65;;;27.30;80.10;;;;;;5035451;28;20046;-78
2022/07/24 11:09:04;;;;;;;4.45;2.70;;;27.50;82.00;;;;;;4965881;28;20085;-77
2022/07/24 11:11:30;;;;;;;8.80;3.15;;;27.80;82.80;;;;;;5008601;28;20075;-77
2022/07/24 11:14:01;;;;;;;4.60;3.00;;;27.80;82.70;;;;;;5021537;28;20072;-77
2022/07/24 11:16:29;;;;;;;4.03;3.00;;;27.90;81.70;;;;;;5020066;28;20087;-77
2022/07/24 11:18:55;;;;;;;4.07;2.90;;;28.00;81.30;;;;;;5022516;28;20487;-77
2022/07/24 11:21:40;;;;;;;4.22;3.00;;;28.00;81.40;;;;;;5038470;28;20120;-77
2022/07/24 11:26:46;;;;;;;3.85;3.00;;;28.10;79.50;;;;;;5028160;28;20406;-77
2022/07/24 11:29:17;;;;;;;3.53;2.80;;;28.10;78.70;;;;;;5022669;28;20113;-76
2022/07/24 11:31:46;;;;;;;4.22;2.83;;;28.10;78.60;;;;;;5033264;28;20042;-77
2022/07/24 11:34:11;;;;;;;4.53;3.00;;;28.10;79.20;;;;;;5025495;28;20038;-77
2022/07/24 11:36:44;;;;;;;4.22;2.60;;;28.20;79.80;;;;;;5025214;28;20099;-77
2022/07/24 11:39:10;;;;;;;4.28;2.92;;;28.30;78.70;;;;;;5024331;28;20045;-76
2022/07/24 11:41:47;;;;;;;5.28;2.72;;;28.40;76.70;;;;;;5031525;28;20033;-77
2022/07/24 11:44:15;;;;;;;4.57;2.88;;;28.30;76.10;;;;;;5014515;28;20042;-77
2022/07/24 11:46:41;;;;;;;4.70;3.17;;;28.10;75.80;;;;;;5014618;28;20042;-77
2022/07/24 11:49:09;;;;;;;5.18;3.55;;;28.10;76.70;;;;;;5012568;28;20046;-76
2022/07/24 11:51:43;;;;;;;3.90;2.83;;;28.20;77.90;;;;;;5023885;28;20091;-76
2022/07/24 11:54:11;;;;;;;3.38;2.58;;;28.30;75.80;;;;;;5019561;28;20037;-77
2022/07/24 11:56:36;;;;;;;4.13;3.00;;;28.30;74.60;;;;;;5026915;28;20041;-77
2022/07/24 11:59:02;;;;;;;4.75;2.90;;;28.40;73.70;;;;;;5028376;28;20033;-77
2022/07/24 12:01:28;;;;;;;3.33;2.90;;;28.50;74.30;;;;;;5023089;28;20070;-77
2022/07/24 12:03:58;;;;;;;4.55;3.15;;;28.50;73.90;;;;;;5024180;28;20562;-77
2022/07/24 12:06:24;;;;;;;3.83;3.17;;;28.60;73.60;;;;;;5029386;28;20048;-77
2022/07/24 12:08:50;;;;;;;4.72;2.80;;;28.70;70.20;;;;;;5024129;28;20076;-77
2022/07/24 12:11:23;;;;;;;3.65;2.80;;;28.60;70.00;;;;;;5026634;28;20063;-77
2022/07/24 12:13:51;;;;;;;4.07;2.72;;;28.60;69.70;;;;;;5016683;28;20091;-77
2022/07/24 12:16:25;;;;;;;3.30;2.70;;;28.70;69.60;;;;;;5027494;28;20446;-78
2022/07/24 12:18:50;;;;;;;3.88;2.63;;;28.70;69.20;;;;;;5049626;28;20042;-77
2022/07/24 12:21:18;;;;;;;4.05;2.42;;;28.80;68.80;;;;;;5027966;28;20486;-76
2022/07/24 12:23:47;;;;;;;3.75;2.80;;;28.90;68.40;;;;;;5031948;28;20044;-77
2022/07/24 12:26:12;;;;;;;3.72;2.95;;;29.00;67.10;;;;;;5025641;28;20456;-77
2022/07/24 12:28:38;;;;;;;3.53;2.60;;;29.00;66.10;;;;;;5031831;28;20120;-76
2022/07/24 12:31:10;;;;;;;5.97;3.10;;;28.90;66.30;;;;;;5037022;28;20041;-77
2022/07/24 12:33:36;;;;;;;3.38;2.72;;;28.90;66.40;;;;;;5034745;28;20074;-77
2022/07/24 12:36:11;;;;;;;3.03;2.60;;;29.00;66.80;;;;;;5029186;28;20505;-76
2022/07/24 12:38:52;;;;;;;3.55;2.63;;;29.00;66.20;;;;;;5036370;28;20140;-77
2022/07/24 12:41:22;;;;;;;4.78;2.80;;;29.00;66.30;;;;;;5029117;28;20056;-77
2022/07/24 12:43:50;;;;;;;3.47;2.65;;;29.10;66.80;;;;;;5006706;28;20049;-78
2022/07/24 12:46:17;;;;;;;3.22;2.70;;;29.20;66.50;;;;;;5029232;28;20120;-76
2022/07/24 12:49:02;;;;;;;4.38;2.85;;;29.30;66.80;;;;;;5035525;28;20033;-76